sensor_id;sensor_type;location;lat;lon;timestamp;P1;durP1;ratioP1;P2;durP2;ratioP2
39276;SDS011;63149;48.086;-1.606;2023-08-07T05:02:33;9.88;;;3.72;;
39276;SDS011;63149;48.086;-1.606;2023-08-07T05:05:00;12.27;;;4.35;;
39276;SDS011;63149;48.086;-1.606;2023-08-07T05:07:27;9.48;;;4.05;;
39276;SDS011;63149;48.086;-1.606;2023-08-07T05:09:54;8.25;;;3.97;;
39276;SDS011;63149;48.086;-1.606;2023-08-07T05:12:21;9.82;;;4.25;;
39276;SDS011;63149;48.086;-1.606;2023-08-07T05:14:48;9.10;;;3.95;;
39276;SDS011;63149;48.086;-1.606;2023-08-07T05:17:15;10.43;;;4.03;;
39276;SDS011;63149;48.086;-1.606;2023-08-07T05:19:44;7.13;;;3.63;;
39276;SDS011;63149;48.086;-1.606;2023-08-07T05:22:10;11.55;;;4.20;;
39276;SDS011;63149;48.086;-1.606;2023-08-07T05:24:37;8.77;;;4.18;;
39276;SDS011;63149;48.086;-1.606;2023-08-07T05:27:05;7.18;;;3.70;;
39276;SDS011;63149;48.086;-1.606;2023-08-07T05:29:33;8.35;;;3.50;;
39276;SDS011;63149;48.086;-1.606;2023-08-07T05:32:08;14.20;;;4.20;;
39276;SDS011;63149;48.086;-1.606;2023-08-07T05:34:35;10.80;;;3.97;;
39276;SDS011;63149;48.086;-1.606;2023-08-07T05:37:03;8.80;;;4.07;;
39276;SDS011;63149;48.086;-1.606;2023-08-07T05:39:31;12.23;;;4.30;;
39276;SDS011;63149;48.086;-1.606;2023-08-07T05:41:58;8.13;;;4.43;;
39276;SDS011;63149;48.086;-1.606;2023-08-07T05:44:25;10.65;;;4.18;;
39276;SDS011;63149;48.086;-1.606;2023-08-07T05:46:52;12.05;;;4.85;;
39276;SDS011;63149;48.086;-1.606;2023-08-07T05:49:19;11.82;;;4.53;;
39276;SDS011;63149;48.086;-1.606;2023-08-07T05:51:46;12.70;;;4.97;;
39276;SDS011;63149;48.086;-1.606;2023-08-07T05:54:14;13.65;;;4.57;;
39276;SDS011;63149;48.086;-1.606;2023-08-07T05:56:41;9.20;;;5.32;;
39276;SDS011;63149;48.086;-1.606;2023-08-07T05:59:09;12.20;;;5.15;;
39276;SDS011;63149;48.086;-1.606;2023-08-07T06:01:35;9.20;;;4.88;;
39276;SDS011;63149;48.086;-1.606;2023-08-07T06:04:02;15.15;;;5.10;;
39276;SDS011;63149;48.086;-1.606;2023-08-07T06:06:30;17.58;;;5.50;;
39276;SDS011;63149;48.086;-1.606;2023-08-07T06:08:59;11.65;;;5.13;;
39276;SDS011;63149;48.086;-1.606;2023-08-07T06:11:28;12.25;;;5.85;;
39276;SDS011;63149;48.086;-1.606;2023-08-07T06:13:55;17.45;;;5.78;;
39276;SDS011;63149;48.086;-1.606;2023-08-07T06:16:22;14.07;;;5.75;;
39276;SDS011;63149;48.086;-1.606;2023-08-07T06:18:49;18.05;;;5.72;;
39276;SDS011;63149;48.086;-1.606;2023-08-07T06:21:16;14.15;;;5.90;;
39276;SDS011;63149;48.086;-1.606;2023-08-07T06:23:44;15.07;;;6.40;;
39276;SDS011;63149;48.086;-1.606;2023-08-07T06:26:11;13.60;;;6.35;;
39276;SDS011;63149;48.086;-1.606;2023-08-07T06:28:40;23.90;;;7.50;;
39276;SDS011;63149;48.086;-1.606;2023-08-07T06:31:08;13.43;;;6.05;;
39276;SDS011;63149;48.086;-1.606;2023-08-07T06:33:36;15.85;;;6.75;;
39276;SDS011;63149;48.086;-1.606;2023-08-07T06:36:03;14.65;;;7.78;;
39276;SDS011;63149;48.086;-1.606;2023-08-07T06:38:31;14.82;;;7.22;;
39276;SDS011;63149;48.086;-1.606;2023-08-07T06:40:58;14.90;;;7.03;;
39276;SDS011;63149;48.086;-1.606;2023-08-07T06:43:24;13.85;;;6.35;;
39276;SDS011;63149;48.086;-1.606;2023-08-07T06:45:53;12.82;;;7.90;;
39276;SDS011;63149;48.086;-1.606;2023-08-07T06:48:21;19.60;;;8.63;;
39276;SDS011;63149;48.086;-1.606;2023-08-07T06:50:48;17.25;;;7.90;;
39276;SDS011;63149;48.086;-1.606;2023-08-07T06:53:16;17.38;;;7.65;;
39276;SDS011;63149;48.086;-1.606;2023-08-07T06:55:43;7.85;;;5.55;;
39276;SDS011;63149;48.086;-1.606;2023-08-07T06:58:10;9.93;;;6.78;;
39276;SDS011;63149;48.086;-1.606;2023-08-07T07:00:37;13.93;;;7.05;;
39276;SDS011;63149;48.086;-1.606;2023-08-07T07:03:06;16.52;;;7.25;;
39276;SDS011;63149;48.086;-1.606;2023-08-07T07:05:34;16.52;;;7.75;;
39276;SDS011;63149;48.086;-1.606;2023-08-07T07:08:02;10.45;;;6.70;;
39276;SDS011;63149;48.086;-1.606;2023-08-07T07:10:29;15.32;;;6.55;;
39276;SDS011;63149;48.086;-1.606;2023-08-07T07:12:56;8.77;;;5.90;;
39276;SDS011;63149;48.086;-1.606;2023-08-07T07:15:23;12.25;;;6.50;;
39276;SDS011;63149;48.086;-1.606;2023-08-07T07:17:49;16.45;;;6.75;;
39276;SDS011;63149;48.086;-1.606;2023-08-07T07:20:18;12.95;;;6.72;;
39276;SDS011;63149;48.086;-1.606;2023-08-07T07:22:45;16.85;;;7.07;;
39276;SDS011;63149;48.086;-1.606;2023-08-07T07:25:12;12.98;;;6.85;;
39276;SDS011;63149;48.086;-1.606;2023-08-07T07:27:39;14.88;;;6.20;;
39276;SDS011;63149;48.086;-1.606;2023-08-07T07:30:06;14.90;;;6.15;;
39276;SDS011;63149;48.086;-1.606;2023-08-07T07:32:34;10.68;;;4.95;;
39276;SDS011;63149;48.086;-1.606;2023-08-07T07:35:01;17.77;;;5.43;;
39276;SDS011;63149;48.086;-1.606;2023-08-07T07:37:31;12.18;;;5.90;;
39276;SDS011;63149;48.086;-1.606;2023-08-07T07:39:58;12.98;;;4.22;;
39276;SDS011;63149;48.086;-1.606;2023-08-07T07:42:25;11.27;;;4.85;;
39276;SDS011;63149;48.086;-1.606;2023-08-07T07:44:52;12.68;;;5.10;;
39276;SDS011;63149;48.086;-1.606;2023-08-07T07:47:18;14.98;;;5.35;;
39276;SDS011;63149;48.086;-1.606;2023-08-07T07:49:46;10.52;;;5.05;;
39276;SDS011;63149;48.086;-1.606;2023-08-07T07:52:13;14.30;;;4.70;;
39276;SDS011;63149;48.086;-1.606;2023-08-07T07:54:41;13.43;;;5.00;;
39276;SDS011;63149;48.086;-1.606;2023-08-07T07:57:08;14.68;;;4.70;;
39276;SDS011;63149;48.086;-1.606;2023-08-07T07:59:35;14.20;;;4.03;;
39276;SDS011;63149;48.086;-1.606;2023-08-07T08:02:03;8.90;;;3.72;;
39276;SDS011;63149;48.086;-1.606;2023-08-07T08:04:30;7.82;;;3.70;;
39276;SDS011;63149;48.086;-1.606;2023-08-07T08:06:57;12.68;;;3.85;;
39276;SDS011;63149;48.086;-1.606;2023-08-07T08:09:24;11.48;;;4.30;;
39276;SDS011;63149;48.086;-1.606;2023-08-07T08:11:53;11.60;;;3.80;;
39276;SDS011;63149;48.086;-1.606;2023-08-07T08:14:20;11.45;;;3.65;;
39276;SDS011;63149;48.086;-1.606;2023-08-07T08:16:47;9.77;;;3.20;;
39276;SDS011;63149;48.086;-1.606;2023-08-07T08:19:15;7.75;;;3.38;;
39276;SDS011;63149;48.086;-1.606;2023-08-07T08:21:42;6.78;;;3.17;;
39276;SDS011;63149;48.086;-1.606;2023-08-07T08:24:09;5.28;;;3.53;;
39276;SDS011;63149;48.086;-1.606;2023-08-07T08:26:36;15.60;;;3.17;;
39276;SDS011;63149;48.086;-1.606;2023-08-07T08:29:05;12.73;;;2.97;;
39276;SDS011;63149;48.086;-1.606;2023-08-07T08:31:32;8.43;;;3.10;;
39276;SDS011;63149;48.086;-1.606;2023-08-07T08:33:59;5.47;;;2.95;;
39276;SDS011;63149;48.086;-1.606;2023-08-07T08:36:26;8.68;;;3.22;;
39276;SDS011;63149;48.086;-1.606;2023-08-07T08:38:53;6.93;;;2.53;;
39276;SDS011;63149;48.086;-1.606;2023-08-07T08:41:20;5.47;;;2.40;;
39276;SDS011;63149;48.086;-1.606;2023-08-07T08:43:47;10.10;;;2.70;;
39276;SDS011;63149;48.086;-1.606;2023-08-07T08:46:19;8.60;;;2.40;;
39276;SDS011;63149;48.086;-1.606;2023-08-07T08:48:49;9.10;;;2.90;;
39276;SDS011;63149;48.086;-1.606;2023-08-07T08:51:17;10.88;;;2.05;;
39276;SDS011;63149;48.086;-1.606;2023-08-07T08:53:46;6.13;;;2.08;;
39276;SDS011;63149;48.086;-1.606;2023-08-07T08:56:14;10.23;;;2.33;;
39276;SDS011;63149;48.086;-1.606;2023-08-07T08:58:43;6.30;;;2.00;;
39276;SDS011;63149;48.086;-1.606;2023-08-07T09:01:10;9.18;;;2.53;;
39276;SDS011;63149;48.086;-1.606;2023-08-07T09:03:39;8.60;;;2.58;;
39276;SDS011;63149;48.086;-1.606;2023-08-07T09:06:06;5.38;;;1.88;;
39276;SDS011;63149;48.086;-1.606;2023-08-07T09:08:33;6.57;;;2.00;;
39276;SDS011;63149;48.086;-1.606;2023-08-07T09:11:02;5.80;;;2.55;;
39276;SDS011;63149;48.086;-1.606;2023-08-07T09:13:29;5.68;;;2.00;;
39276;SDS011;63149;48.086;-1.606;2023-08-07T09:15:59;4.32;;;2.00;;
39276;SDS011;63149;48.086;-1.606;2023-08-07T09:18:27;4.95;;;2.03;;
39276;SDS011;63149;48.086;-1.606;2023-08-07T09:20:56;6.57;;;2.08;;
39276;SDS011;63149;48.086;-1.606;2023-08-07T09:23:23;8.88;;;2.22;;
39276;SDS011;63149;48.086;-1.606;2023-08-07T09:25:58;12.35;;;2.60;;
39276;SDS011;63149;48.086;-1.606;2023-08-07T09:28:26;6.18;;;2.40;;
39276;SDS011;63149;48.086;-1.606;2023-08-07T09:30:54;4.53;;;2.00;;
39276;SDS011;63149;48.086;-1.606;2023-08-07T09:33:24;5.38;;;2.20;;
39276;SDS011;63149;48.086;-1.606;2023-08-07T09:35:51;5.83;;;1.77;;
39276;SDS011;63149;48.086;-1.606;2023-08-07T09:38:20;3.55;;;1.83;;
39276;SDS011;63149;48.086;-1.606;2023-08-07T09:40:49;4.38;;;1.85;;
39276;SDS011;63149;48.086;-1.606;2023-08-07T09:43:20;5.18;;;1.80;;
39276;SDS011;63149;48.086;-1.606;2023-08-07T09:45:47;4.97;;;1.63;;
39276;SDS011;63149;48.086;-1.606;2023-08-07T09:48:22;1.98;;;1.60;;
39276;SDS011;63149;48.086;-1.606;2023-08-07T09:50:50;1.98;;;1.27;;
39276;SDS011;63149;48.086;-1.606;2023-08-07T09:53:17;4.95;;;1.70;;
39276;SDS011;63149;48.086;-1.606;2023-08-07T09:55:45;4.65;;;1.75;;
39276;SDS011;63149;48.086;-1.606;2023-08-07T09:58:12;5.05;;;1.70;;
39276;SDS011;63149;48.086;-1.606;2023-08-07T10:00:39;7.13;;;1.70;;
39276;SDS011;63149;48.086;-1.606;2023-08-07T10:03:07;5.38;;;1.45;;
39276;SDS011;63149;48.086;-1.606;2023-08-07T10:05:34;5.88;;;1.48;;
39276;SDS011;63149;48.086;-1.606;2023-08-07T10:08:01;4.38;;;1.40;;
39276;SDS011;63149;48.086;-1.606;2023-08-07T10:10:30;7.05;;;1.90;;
39276;SDS011;63149;48.086;-1.606;2023-08-07T10:13:00;5.30;;;1.67;;
39276;SDS011;63149;48.086;-1.606;2023-08-07T10:15:28;2.70;;;1.45;;
39276;SDS011;63149;48.086;-1.606;2023-08-07T10:17:56;3.45;;;1.83;;
39276;SDS011;63149;48.086;-1.606;2023-08-07T10:20:24;3.28;;;1.60;;
39276;SDS011;63149;48.086;-1.606;2023-08-07T10:22:53;4.13;;;1.50;;
39276;SDS011;63149;48.086;-1.606;2023-08-07T10:25:25;3.42;;;1.40;;
39276;SDS011;63149;48.086;-1.606;2023-08-07T10:27:55;1.88;;;1.40;;
39276;SDS011;63149;48.086;-1.606;2023-08-07T10:30:26;5.13;;;1.27;;
39276;SDS011;63149;48.086;-1.606;2023-08-07T10:32:55;2.92;;;1.27;;
39276;SDS011;63149;48.086;-1.606;2023-08-07T10:35:24;2.83;;;1.40;;
39276;SDS011;63149;48.086;-1.606;2023-08-07T10:37:52;5.53;;;1.40;;
39276;SDS011;63149;48.086;-1.606;2023-08-07T10:40:19;3.22;;;1.50;;
39276;SDS011;63149;48.086;-1.606;2023-08-07T10:42:51;3.13;;;1.50;;
39276;SDS011;63149;48.086;-1.606;2023-08-07T10:45:22;5.65;;;1.63;;
39276;SDS011;63149;48.086;-1.606;2023-08-07T10:48:03;3.40;;;1.50;;
39276;SDS011;63149;48.086;-1.606;2023-08-07T10:50:32;4.30;;;1.58;;
39276;SDS011;63149;48.086;-1.606;2023-08-07T10:53:00;4.63;;;1.40;;
39276;SDS011;63149;48.086;-1.606;2023-08-07T10:55:31;2.53;;;1.13;;
39276;SDS011;63149;48.086;-1.606;2023-08-07T10:58:08;2.93;;;1.30;;
39276;SDS011;63149;48.086;-1.606;2023-08-07T11:00:48;2.63;;;1.65;;
39276;SDS011;63149;48.086;-1.606;2023-08-07T11:03:20;2.70;;;1.00;;
39276;SDS011;63149;48.086;-1.606;2023-08-07T11:05:53;4.00;;;1.20;;
39276;SDS011;63149;48.086;-1.606;2023-08-07T11:08:21;3.95;;;2.40;;
39276;SDS011;63149;48.086;-1.606;2023-08-07T11:10:50;6.47;;;3.08;;
39276;SDS011;63149;48.086;-1.606;2023-08-07T11:13:17;7.55;;;1.88;;
39276;SDS011;63149;48.086;-1.606;2023-08-07T11:15:45;3.55;;;1.30;;
39276;SDS011;63149;48.086;-1.606;2023-08-07T11:18:12;2.70;;;1.20;;
39276;SDS011;63149;48.086;-1.606;2023-08-07T11:20:43;2.95;;;1.02;;
39276;SDS011;63149;48.086;-1.606;2023-08-07T11:23:11;1.67;;;1.20;;
39276;SDS011;63149;48.086;-1.606;2023-08-07T11:25:38;2.38;;;1.52;;
39276;SDS011;63149;48.086;-1.606;2023-08-07T11:28:04;4.18;;;1.40;;
39276;SDS011;63149;48.086;-1.606;2023-08-07T11:30:33;1.30;;;1.00;;
39276;SDS011;63149;48.086;-1.606;2023-08-07T11:33:00;2.47;;;1.40;;
39276;SDS011;63149;48.086;-1.606;2023-08-07T11:35:28;2.97;;;1.30;;
39276;SDS011;63149;48.086;-1.606;2023-08-07T11:37:56;4.38;;;1.60;;
39276;SDS011;63149;48.086;-1.606;2023-08-07T11:40:23;3.30;;;1.75;;
39276;SDS011;63149;48.086;-1.606;2023-08-07T11:42:50;4.63;;;1.40;;
39276;SDS011;63149;48.086;-1.606;2023-08-07T11:45:17;2.15;;;1.10;;
39276;SDS011;63149;48.086;-1.606;2023-08-07T11:47:44;3.08;;;1.20;;
39276;SDS011;63149;48.086;-1.606;2023-08-07T11:50:11;3.35;;;1.30;;
39276;SDS011;63149;48.086;-1.606;2023-08-07T11:52:38;2.20;;;1.00;;
39276;SDS011;63149;48.086;-1.606;2023-08-07T11:55:08;3.20;;;1.20;;
39276;SDS011;63149;48.086;-1.606;2023-08-07T11:57:37;2.05;;;1.35;;
39276;SDS011;63149;48.086;-1.606;2023-08-07T12:00:06;3.47;;;1.23;;
39276;SDS011;63149;48.086;-1.606;2023-08-07T12:02:38;7.20;;;1.30;;
39276;SDS011;63149;48.086;-1.606;2023-08-07T12:05:08;3.27;;;1.13;;
39276;SDS011;63149;48.086;-1.606;2023-08-07T12:07:37;1.98;;;1.20;;
39276;SDS011;63149;48.086;-1.606;2023-08-07T12:10:07;6.05;;;1.30;;
39276;SDS011;63149;48.086;-1.606;2023-08-07T12:12:35;4.53;;;1.50;;
39276;SDS011;63149;48.086;-1.606;2023-08-07T12:15:03;4.65;;;1.13;;
39276;SDS011;63149;48.086;-1.606;2023-08-07T12:17:33;4.33;;;1.40;;
39276;SDS011;63149;48.086;-1.606;2023-08-07T12:20:03;2.95;;;1.25;;
39276;SDS011;63149;48.086;-1.606;2023-08-07T12:22:32;1.67;;;1.20;;
39276;SDS011;63149;48.086;-1.606;2023-08-07T12:24:59;2.25;;;1.17;;
39276;SDS011;63149;48.086;-1.606;2023-08-07T12:27:28;4.13;;;1.30;;
39276;SDS011;63149;48.086;-1.606;2023-08-07T12:29:55;3.22;;;1.17;;
39276;SDS011;63149;48.086;-1.606;2023-08-07T12:32:22;3.33;;;1.10;;
39276;SDS011;63149;48.086;-1.606;2023-08-07T12:34:49;5.90;;;1.58;;
39276;SDS011;63149;48.086;-1.606;2023-08-07T12:37:16;3.55;;;1.30;;
39276;SDS011;63149;48.086;-1.606;2023-08-07T12:39:43;2.75;;;1.20;;
39276;SDS011;63149;48.086;-1.606;2023-08-07T12:42:10;1.73;;;1.35;;
39276;SDS011;63149;48.086;-1.606;2023-08-07T12:44:38;3.90;;;0.90;;
39276;SDS011;63149;48.086;-1.606;2023-08-07T12:47:05;2.00;;;1.17;;
39276;SDS011;63149;48.086;-1.606;2023-08-07T12:49:32;2.80;;;1.15;;
39276;SDS011;63149;48.086;-1.606;2023-08-07T12:51:59;5.80;;;1.38;;
39276;SDS011;63149;48.086;-1.606;2023-08-07T12:54:26;2.70;;;1.40;;
39276;SDS011;63149;48.086;-1.606;2023-08-07T12:56:53;4.53;;;1.60;;
39276;SDS011;63149;48.086;-1.606;2023-08-07T12:59:20;8.60;;;1.40;;
39276;SDS011;63149;48.086;-1.606;2023-08-07T13:01:48;3.22;;;1.65;;
39276;SDS011;63149;48.086;-1.606;2023-08-07T13:04:18;2.45;;;1.33;;
39276;SDS011;63149;48.086;-1.606;2023-08-07T13:06:44;3.38;;;1.45;;
39276;SDS011;63149;48.086;-1.606;2023-08-07T13:09:11;5.60;;;1.30;;
39276;SDS011;63149;48.086;-1.606;2023-08-07T13:11:39;4.13;;;1.25;;
39276;SDS011;63149;48.086;-1.606;2023-08-07T13:14:06;1.75;;;1.10;;
39276;SDS011;63149;48.086;-1.606;2023-08-07T13:16:33;2.47;;;1.55;;
39276;SDS011;63149;48.086;-1.606;2023-08-07T13:19:01;2.38;;;1.23;;
39276;SDS011;63149;48.086;-1.606;2023-08-07T13:21:28;9.60;;;1.42;;
39276;SDS011;63149;48.086;-1.606;2023-08-07T13:23:55;9.13;;;1.80;;
39276;SDS011;63149;48.086;-1.606;2023-08-07T13:26:22;3.97;;;1.42;;
39276;SDS011;63149;48.086;-1.606;2023-08-07T13:28:49;2.28;;;1.60;;
39276;SDS011;63149;48.086;-1.606;2023-08-07T13:31:15;3.90;;;1.38;;
39276;SDS011;63149;48.086;-1.606;2023-08-07T13:33:42;2.63;;;1.05;;
39276;SDS011;63149;48.086;-1.606;2023-08-07T13:36:11;1.98;;;1.20;;
39276;SDS011;63149;48.086;-1.606;2023-08-07T13:38:38;2.95;;;1.45;;
39276;SDS011;63149;48.086;-1.606;2023-08-07T13:41:04;3.70;;;1.30;;
39276;SDS011;63149;48.086;-1.606;2023-08-07T13:43:31;3.85;;;1.55;;
39276;SDS011;63149;48.086;-1.606;2023-08-07T13:45:58;5.88;;;1.25;;
39276;SDS011;63149;48.086;-1.606;2023-08-07T13:48:25;3.03;;;1.67;;
39276;SDS011;63149;48.086;-1.606;2023-08-07T13:50:53;3.83;;;1.38;;
39276;SDS011;63149;48.086;-1.606;2023-08-07T13:53:21;1.60;;;1.15;;
39276;SDS011;63149;48.086;-1.606;2023-08-07T13:55:54;3.20;;;1.20;;
39276;SDS011;63149;48.086;-1.606;2023-08-07T13:58:20;4.05;;;1.48;;
39276;SDS011;63149;48.086;-1.606;2023-08-07T14:00:47;3.55;;;1.13;;
39276;SDS011;63149;48.086;-1.606;2023-08-07T14:03:14;3.30;;;1.98;;
39276;SDS011;63149;48.086;-1.606;2023-08-07T14:05:41;2.65;;;1.23;;
39276;SDS011;63149;48.086;-1.606;2023-08-07T14:08:08;3.17;;;1.30;;
39276;SDS011;63149;48.086;-1.606;2023-08-07T14:10:37;2.30;;;1.23;;
39276;SDS011;63149;48.086;-1.606;2023-08-07T14:13:06;5.43;;;1.48;;
39276;SDS011;63149;48.086;-1.606;2023-08-07T14:15:33;2.60;;;1.38;;
39276;SDS011;63149;48.086;-1.606;2023-08-07T14:18:00;5.15;;;1.63;;
39276;SDS011;63149;48.086;-1.606;2023-08-07T14:20:27;1.67;;;1.00;;
39276;SDS011;63149;48.086;-1.606;2023-08-07T14:22:54;2.75;;;1.40;;
39276;SDS011;63149;48.086;-1.606;2023-08-07T14:25:21;2.10;;;1.20;;
39276;SDS011;63149;48.086;-1.606;2023-08-07T14:27:49;4.60;;;1.30;;
39276;SDS011;63149;48.086;-1.606;2023-08-07T14:30:16;3.78;;;1.33;;
39276;SDS011;63149;48.086;-1.606;2023-08-07T14:32:43;1.63;;;1.33;;
39276;SDS011;63149;48.086;-1.606;2023-08-07T14:35:12;4.00;;;1.48;;
39276;SDS011;63149;48.086;-1.606;2023-08-07T14:37:39;2.83;;;1.40;;
39276;SDS011;63149;48.086;-1.606;2023-08-07T14:40:06;2.15;;;1.20;;
39276;SDS011;63149;48.086;-1.606;2023-08-07T14:42:34;3.15;;;1.80;;
39276;SDS011;63149;48.086;-1.606;2023-08-07T14:45:02;6.63;;;1.30;;
39276;SDS011;63149;48.086;-1.606;2023-08-07T14:47:30;1.67;;;1.23;;
39276;SDS011;63149;48.086;-1.606;2023-08-07T14:49:56;2.83;;;1.25;;
39276;SDS011;63149;48.086;-1.606;2023-08-07T14:52:23;1.85;;;1.40;;
39276;SDS011;63149;48.086;-1.606;2023-08-07T14:54:50;4.45;;;1.30;;
39276;SDS011;63149;48.086;-1.606;2023-08-07T14:57:18;3.42;;;1.40;;
39276;SDS011;63149;48.086;-1.606;2023-08-07T14:59:45;1.48;;;1.20;;
39276;SDS011;63149;48.086;-1.606;2023-08-07T15:02:13;4.65;;;1.35;;
39276;SDS011;63149;48.086;-1.606;2023-08-07T15:04:40;1.95;;;1.20;;
39276;SDS011;63149;48.086;-1.606;2023-08-07T15:07:07;1.73;;;1.15;;
39276;SDS011;63149;48.086;-1.606;2023-08-07T15:09:34;2.65;;;1.23;;
39276;SDS011;63149;48.086;-1.606;2023-08-07T15:12:01;6.38;;;1.40;;
39276;SDS011;63149;48.086;-1.606;2023-08-07T15:14:29;10.35;;;1.67;;
39276;SDS011;63149;48.086;-1.606;2023-08-07T15:16:56;3.35;;;1.30;;
39276;SDS011;63149;48.086;-1.606;2023-08-07T15:19:24;3.95;;;2.05;;
39276;SDS011;63149;48.086;-1.606;2023-08-07T15:21:51;2.30;;;1.50;;
39276;SDS011;63149;48.086;-1.606;2023-08-07T15:24:18;1.50;;;1.10;;
39276;SDS011;63149;48.086;-1.606;2023-08-07T15:26:45;2.38;;;1.20;;
39276;SDS011;63149;48.086;-1.606;2023-08-07T15:29:12;2.60;;;1.20;;
39276;SDS011;63149;48.086;-1.606;2023-08-07T15:31:39;2.45;;;1.17;;
39276;SDS011;63149;48.086;-1.606;2023-08-07T15:34:06;1.80;;;1.27;;
39276;SDS011;63149;48.086;-1.606;2023-08-07T15:36:35;3.95;;;1.10;;
39276;SDS011;63149;48.086;-1.606;2023-08-07T15:39:01;3.83;;;1.50;;
39276;SDS011;63149;48.086;-1.606;2023-08-07T15:41:29;2.22;;;1.20;;
39276;SDS011;63149;48.086;-1.606;2023-08-07T15:43:56;3.30;;;1.52;;
39276;SDS011;63149;48.086;-1.606;2023-08-07T15:46:22;5.82;;;1.30;;
39276;SDS011;63149;48.086;-1.606;2023-08-07T15:48:49;3.17;;;1.35;;
39276;SDS011;63149;48.086;-1.606;2023-08-07T15:51:16;3.92;;;1.30;;
39276;SDS011;63149;48.086;-1.606;2023-08-07T15:53:46;4.82;;;1.70;;
39276;SDS011;63149;48.086;-1.606;2023-08-07T15:56:13;2.25;;;1.30;;
39276;SDS011;63149;48.086;-1.606;2023-08-07T15:58:40;4.28;;;1.38;;
39276;SDS011;63149;48.086;-1.606;2023-08-07T16:01:06;1.73;;;1.35;;
39276;SDS011;63149;48.086;-1.606;2023-08-07T16:03:34;3.10;;;1.13;;
39276;SDS011;63149;48.086;-1.606;2023-08-07T16:06:01;2.10;;;1.25;;
39276;SDS011;63149;48.086;-1.606;2023-08-07T16:08:28;2.90;;;1.42;;
39276;SDS011;63149;48.086;-1.606;2023-08-07T16:10:56;3.60;;;1.50;;
39276;SDS011;63149;48.086;-1.606;2023-08-07T16:13:23;3.53;;;1.35;;
39276;SDS011;63149;48.086;-1.606;2023-08-07T16:15:50;4.53;;;1.80;;
39276;SDS011;63149;48.086;-1.606;2023-08-07T16:18:17;2.65;;;1.42;;
39276;SDS011;63149;48.086;-1.606;2023-08-07T16:20:44;5.75;;;1.20;;
39276;SDS011;63149;48.086;-1.606;2023-08-07T16:23:11;1.70;;;1.10;;
39276;SDS011;63149;48.086;-1.606;2023-08-07T16:25:38;1.25;;;1.10;;
39276;SDS011;63149;48.086;-1.606;2023-08-07T16:28:06;2.95;;;1.40;;
39276;SDS011;63149;48.086;-1.606;2023-08-07T16:30:33;2.05;;;1.20;;
39276;SDS011;63149;48.086;-1.606;2023-08-07T16:33:00;3.58;;;1.00;;
39276;SDS011;63149;48.086;-1.606;2023-08-07T16:35:27;3.40;;;1.25;;
39276;SDS011;63149;48.086;-1.606;2023-08-07T16:37:54;2.97;;;1.52;;
39276;SDS011;63149;48.086;-1.606;2023-08-07T16:40:21;1.77;;;1.20;;
39276;SDS011;63149;48.086;-1.606;2023-08-07T16:42:48;2.97;;;1.30;;
39276;SDS011;63149;48.086;-1.606;2023-08-07T16:45:16;1.33;;;1.00;;
39276;SDS011;63149;48.086;-1.606;2023-08-07T16:47:44;3.28;;;1.25;;
39276;SDS011;63149;48.086;-1.606;2023-08-07T16:50:12;4.63;;;2.03;;
39276;SDS011;63149;48.086;-1.606;2023-08-07T16:52:39;2.17;;;1.45;;
39276;SDS011;63149;48.086;-1.606;2023-08-07T16:55:06;3.78;;;1.48;;
39276;SDS011;63149;48.086;-1.606;2023-08-07T16:57:33;3.28;;;1.48;;
39276;SDS011;63149;48.086;-1.606;2023-08-07T17:00:00;5.10;;;1.77;;
39276;SDS011;63149;48.086;-1.606;2023-08-07T17:02:30;4.90;;;1.48;;
39276;SDS011;63149;48.086;-1.606;2023-08-07T17:04:57;3.10;;;1.23;;
39276;SDS011;63149;48.086;-1.606;2023-08-07T17:07:24;2.83;;;1.40;;
39276;SDS011;63149;48.086;-1.606;2023-08-07T17:09:51;2.78;;;1.15;;
39276;SDS011;63149;48.086;-1.606;2023-08-07T17:12:18;2.10;;;0.98;;
39276;SDS011;63149;48.086;-1.606;2023-08-07T17:14:45;2.20;;;1.20;;
39276;SDS011;63149;48.086;-1.606;2023-08-07T17:17:11;3.45;;;1.75;;
39276;SDS011;63149;48.086;-1.606;2023-08-07T17:19:40;2.28;;;1.15;;
39276;SDS011;63149;48.086;-1.606;2023-08-07T17:22:07;2.22;;;1.20;;
39276;SDS011;63149;48.086;-1.606;2023-08-07T17:24:34;3.25;;;1.23;;
39276;SDS011;63149;48.086;-1.606;2023-08-07T17:27:00;7.78;;;1.55;;
39276;SDS011;63149;48.086;-1.606;2023-08-07T17:29:27;2.78;;;1.30;;
39276;SDS011;63149;48.086;-1.606;2023-08-07T17:31:54;2.75;;;1.20;;
39276;SDS011;63149;48.086;-1.606;2023-08-07T17:34:23;1.55;;;1.10;;
39276;SDS011;63149;48.086;-1.606;2023-08-07T17:36:51;1.35;;;1.20;;
39276;SDS011;63149;48.086;-1.606;2023-08-07T17:39:18;4.10;;;1.33;;
39276;SDS011;63149;48.086;-1.606;2023-08-07T17:41:45;3.10;;;1.35;;
39276;SDS011;63149;48.086;-1.606;2023-08-07T17:44:12;2.35;;;1.50;;
39276;SDS011;63149;48.086;-1.606;2023-08-07T17:46:39;1.30;;;1.20;;
39276;SDS011;63149;48.086;-1.606;2023-08-07T17:49:07;4.05;;;1.70;;
39276;SDS011;63149;48.086;-1.606;2023-08-07T17:51:33;4.00;;;1.92;;
39276;SDS011;63149;48.086;-1.606;2023-08-07T17:54:02;7.43;;;1.90;;
39276;SDS011;63149;48.086;-1.606;2023-08-07T17:56:29;4.28;;;1.42;;
39276;SDS011;63149;48.086;-1.606;2023-08-07T17:58:58;3.50;;;1.40;;
39276;SDS011;63149;48.086;-1.606;2023-08-07T18:01:25;2.08;;;1.55;;
39276;SDS011;63149;48.086;-1.606;2023-08-07T18:03:54;1.67;;;1.30;;
39276;SDS011;63149;48.086;-1.606;2023-08-07T18:06:24;1.77;;;1.20;;
39276;SDS011;63149;48.086;-1.606;2023-08-07T18:08:52;2.67;;;1.42;;
39276;SDS011;63149;48.086;-1.606;2023-08-07T18:11:20;2.85;;;1.60;;
39276;SDS011;63149;48.086;-1.606;2023-08-07T18:13:47;3.17;;;1.70;;
39276;SDS011;63149;48.086;-1.606;2023-08-07T18:16:15;5.68;;;1.42;;
39276;SDS011;63149;48.086;-1.606;2023-08-07T18:18:42;4.15;;;1.50;;
39276;SDS011;63149;48.086;-1.606;2023-08-07T18:21:09;5.20;;;1.60;;
39276;SDS011;63149;48.086;-1.606;2023-08-07T18:23:36;2.25;;;1.30;;
39276;SDS011;63149;48.086;-1.606;2023-08-07T18:26:03;2.95;;;1.48;;
39276;SDS011;63149;48.086;-1.606;2023-08-07T18:28:31;2.08;;;1.40;;
39276;SDS011;63149;48.086;-1.606;2023-08-07T18:30:59;2.35;;;1.20;;
39276;SDS011;63149;48.086;-1.606;2023-08-07T18:33:25;2.40;;;1.17;;
39276;SDS011;63149;48.086;-1.606;2023-08-07T18:35:52;3.83;;;1.40;;
39276;SDS011;63149;48.086;-1.606;2023-08-07T18:38:24;3.80;;;1.50;;
39276;SDS011;63149;48.086;-1.606;2023-08-07T18:40:51;2.33;;;1.23;;
39276;SDS011;63149;48.086;-1.606;2023-08-07T18:43:18;2.08;;;1.60;;
39276;SDS011;63149;48.086;-1.606;2023-08-07T18:45:46;2.17;;;1.20;;
39276;SDS011;63149;48.086;-1.606;2023-08-07T18:48:13;4.50;;;1.58;;
39276;SDS011;63149;48.086;-1.606;2023-08-07T18:50:40;5.25;;;1.70;;
39276;SDS011;63149;48.086;-1.606;2023-08-07T18:53:07;4.22;;;1.60;;
39276;SDS011;63149;48.086;-1.606;2023-08-07T18:55:34;4.05;;;1.77;;
39276;SDS011;63149;48.086;-1.606;2023-08-07T18:58:01;3.00;;;1.80;;
39276;SDS011;63149;48.086;-1.606;2023-08-07T19:00:28;5.10;;;1.90;;
39276;SDS011;63149;48.086;-1.606;2023-08-07T19:02:56;4.15;;;1.65;;
39276;SDS011;63149;48.086;-1.606;2023-08-07T19:05:23;4.82;;;1.65;;
39276;SDS011;63149;48.086;-1.606;2023-08-07T19:07:50;4.72;;;1.88;;
39276;SDS011;63149;48.086;-1.606;2023-08-07T19:10:17;4.63;;;1.60;;
39276;SDS011;63149;48.086;-1.606;2023-08-07T19:12:44;6.28;;;1.77;;
39276;SDS011;63149;48.086;-1.606;2023-08-07T19:15:13;7.72;;;1.65;;
39276;SDS011;63149;48.086;-1.606;2023-08-07T19:17:41;4.22;;;1.67;;
39276;SDS011;63149;48.086;-1.606;2023-08-07T19:20:10;6.10;;;1.50;;
39276;SDS011;63149;48.086;-1.606;2023-08-07T19:22:38;3.40;;;1.50;;
39276;SDS011;63149;48.086;-1.606;2023-08-07T19:25:05;4.20;;;2.00;;
39276;SDS011;63149;48.086;-1.606;2023-08-07T19:27:33;5.40;;;1.90;;
39276;SDS011;63149;48.086;-1.606;2023-08-07T19:30:00;4.50;;;1.90;;
39276;SDS011;63149;48.086;-1.606;2023-08-07T19:32:27;3.90;;;2.05;;
39276;SDS011;63149;48.086;-1.606;2023-08-07T19:34:54;4.70;;;1.63;;